Time;durP1;ratioP1;P1;durP2;ratioP2;P2;SDS_P1;SDS_P2;PMS_P1;PMS_P2;Temp;Humidity;BMP_temperature;BMP_pressure;BME280_temperature;BME280_humidity;BME280_pressure;Samples;Min_cycle;Max_cycle;Signal;HPM_P1;HPM_P2
2022/12/06 00:01:21;;;;;;;31.85;29.15;;;;;;;;;;5099063;28;20249;-88
2022/12/06 00:03:48;;;;;;;32.88;28.35;;;;;;;;;;5103904;28;20939;-88
2022/12/06 00:06:16;;;;;;;36.58;29.30;;;;;;;;;;5101145;28;20310;-89
2022/12/06 00:08:44;;;;;;;44.85;28.92;;;;;;;;;;5102487;28;20598;-89
2022/12/06 00:11:12;;;;;;;38.95;29.50;;;;;;;;;;5100703;28;20294;-89
2022/12/06 00:13:39;;;;;;;42.70;30.10;;;;;;;;;;5105177;28;20272;-89
2022/12/06 00:16:07;;;;;;;41.95;28.50;;;;;;;;;;5102858;28;20310;-88
2022/12/06 00:18:36;;;;;;;32.95;29.08;;;;;;;;;;5101542;28;20298;-89
2022/12/06 00:21:08;;;;;;;32.15;28.85;;;;;;;;;;5100983;28;20226;-88
2022/12/06 00:23:36;;;;;;;36.22;29.90;;;;;;;;;;5103139;28;20287;-89
2022/12/06 00:26:03;;;;;;;33.38;29.00;;;;;;;;;;5104079;28;20224;-89
2022/12/06 00:28:32;;;;;;;31.88;28.70;;;;;;;;;;5102911;28;20218;-89
2022/12/06 00:30:59;;;;;;;33.72;30.10;;;;;;;;;;5100771;28;20199;-89
2022/12/06 00:33:26;;;;;;;32.95;29.35;;;;;;;;;;5103156;28;20627;-89
2022/12/06 00:35:58;;;;;;;33.20;29.83;;;;;;;;;;5100393;28;20227;-89
2022/12/06 00:38:26;;;;;;;34.33;31.20;;;;;;;;;;5100110;28;20213;-89
2022/12/06 00:40:58;;;;;;;31.42;27.95;;;;;;;;;;5100320;28;20314;-89
2022/12/06 00:43:26;;;;;;;40.03;31.35;;;;;;;;;;5113776;28;20237;-89
2022/12/06 00:45:53;;;;;;;44.50;31.35;;;;;;;;;;5101657;28;20230;-89
2022/12/06 00:48:21;;;;;;;37.53;31.35;;;;;;;;;;5104043;28;20251;-89
2022/12/06 00:50:48;;;;;;;35.50;30.80;;;;;;;;;;5107147;28;20235;-89
2022/12/06 00:53:17;;;;;;;36.08;32.00;;;;;;;;;;5112384;28;20242;-89
2022/12/06 00:55:44;;;;;;;43.95;31.60;;;;;;;;;;5115399;28;20260;-89
2022/12/06 00:58:11;;;;;;;34.70;30.02;;;;;;;;;;5114491;28;20270;-88
2022/12/06 01:00:39;;;;;;;42.58;29.50;;;;;;;;;;5113262;28;20224;-90
2022/12/06 01:03:06;;;;;;;51.90;30.73;;;;;;;;;;5116653;28;20255;-89
2022/12/06 01:05:33;;;;;;;46.30;29.73;;;;;;;;;;5113337;28;20288;-88
2022/12/06 01:08:01;;;;;;;40.60;30.73;;;;;;;;;;5103532;28;20211;-88
2022/12/06 01:10:29;;;;;;;43.58;29.20;;;;;;;;;;5107087;28;20290;-89
2022/12/06 01:12:56;;;;;;;46.75;32.42;;;;;;;;;;5105406;28;20186;-89
2022/12/06 01:15:24;;;;;;;31.58;28.17;;;;;;;;;;5104686;28;20302;-89
2022/12/06 01:17:51;;;;;;;45.00;29.80;;;;;;;;;;5105067;28;20207;-89
2022/12/06 01:20:18;;;;;;;34.13;30.48;;;;;;;;;;5107330;28;20219;-89
2022/12/06 01:22:46;;;;;;;40.15;29.58;;;;;;;;;;5114049;28;20618;-90
2022/12/06 01:25:13;;;;;;;30.77;27.40;;;;;;;;;;5104733;28;20221;-89
2022/12/06 01:27:41;;;;;;;39.95;27.83;;;;;;;;;;5106221;28;20240;-89
2022/12/06 01:30:09;;;;;;;30.50;27.50;;;;;;;;;;5105079;28;20286;-89
2022/12/06 01:32:36;;;;;;;30.52;28.02;;;;;;;;;;5105142;28;20202;-89
2022/12/06 01:35:03;;;;;;;29.65;26.95;;;;;;;;;;5103278;28;20275;-89
2022/12/06 01:37:30;;;;;;;29.70;27.50;;;;;;;;;;5105648;28;20216;-89
2022/12/06 01:39:58;;;;;;;29.20;26.92;;;;;;;;;;5103836;28;20344;-89
2022/12/06 01:42:25;;;;;;;31.17;28.63;;;;;;;;;;5103009;28;20211;-89
2022/12/06 01:44:54;;;;;;;29.17;26.88;;;;;;;;;;5103368;28;20276;-91
2022/12/06 01:47:24;;;;;;;29.88;27.33;;;;;;;;;;5105211;28;20200;-89
2022/12/06 01:49:55;;;;;;;29.80;27.40;;;;;;;;;;5107922;28;20231;-90
2022/12/06 01:52:25;;;;;;;29.08;26.95;;;;;;;;;;5103427;28;20284;-89
2022/12/06 01:54:52;;;;;;;29.25;26.95;;;;;;;;;;5106101;28;20298;-90
2022/12/06 01:57:19;;;;;;;27.00;25.10;;;;;;;;;;5102966;28;20207;-89
2022/12/06 01:59:47;;;;;;;29.63;27.48;;;;;;;;;;5097883;28;20208;-89
2022/12/06 02:02:15;;;;;;;29.10;26.90;;;;;;;;;;5095234;28;20237;-89
2022/12/06 02:04:43;;;;;;;27.83;25.85;;;;;;;;;;5098333;28;20221;-89
2022/12/06 02:07:11;;;;;;;28.73;26.48;;;;;;;;;;5096381;28;20227;-89
2022/12/06 02:09:39;;;;;;;29.40;26.90;;;;;;;;;;5097351;28;20235;-89
2022/12/06 02:12:11;;;;;;;28.75;26.55;;;;;;;;;;5098397;28;20199;-89
2022/12/06 02:14:39;;;;;;;28.67;26.38;;;;;;;;;;5098004;28;20195;-89
2022/12/06 02:17:13;;;;;;;27.48;25.55;;;;;;;;;;5097277;28;20227;-89
2022/12/06 02:20:01;;;;;;;27.88;25.77;;;;;;;;;;5097823;28;20191;-89
2022/12/06 02:22:35;;;;;;;26.70;24.90;;;;;;;;;;5093613;28;20219;-89
2022/12/06 02:25:17;;;;;;;26.70;25.00;;;;;;;;;;5097205;28;20187;-89
2022/12/06 02:27:55;;;;;;;26.27;24.50;;;;;;;;;;5096880;28;20216;-90
2022/12/06 02:30:36;;;;;;;27.13;25.25;;;;;;;;;;5096922;28;20197;-89
2022/12/06 02:33:07;;;;;;;27.65;25.55;;;;;;;;;;5095873;28;20202;-89
2022/12/06 02:35:35;;;;;;;26.75;24.95;;;;;;;;;;5095352;28;20246;-89
2022/12/06 02:38:05;;;;;;;27.00;25.20;;;;;;;;;;5094566;28;20583;-89
2022/12/06 02:40:35;;;;;;;27.30;25.40;;;;;;;;;;5095053;28;20568;-89
2022/12/06 02:43:04;;;;;;;27.20;25.20;;;;;;;;;;5094293;28;20609;-90
2022/12/06 02:45:33;;;;;;;27.83;25.92;;;;;;;;;;5094264;28;20227;-89
2022/12/06 02:48:03;;;;;;;27.70;25.73;;;;;;;;;;5094609;28;20193;-89
2022/12/06 02:50:32;;;;;;;27.98;25.98;;;;;;;;;;5094761;28;20204;-89
2022/12/06 02:53:00;;;;;;;27.92;25.83;;;;;;;;;;5094192;28;20205;-90
2022/12/06 02:55:28;;;;;;;26.38;24.50;;;;;;;;;;5094316;28;20225;-89
2022/12/06 02:57:56;;;;;;;28.20;26.13;;;;;;;;;;5094788;28;20204;-89
2022/12/06 03:00:42;;;;;;;27.02;25.20;;;;;;;;;;5094335;28;20207;-89
2022/12/06 03:03:19;;;;;;;27.50;25.65;;;;;;;;;;5093976;28;20187;-89
2022/12/06 03:05:53;;;;;;;28.42;26.48;;;;;;;;;;5094302;28;20231;-89
2022/12/06 03:08:27;;;;;;;26.35;24.65;;;;;;;;;;5093959;28;20639;-89
2022/12/06 03:10:58;;;;;;;25.48;23.77;;;;;;;;;;5095205;28;20192;-89
2022/12/06 03:13:27;;;;;;;27.58;25.50;;;;;;;;;;5094394;28;20207;-89
2022/12/06 03:15:56;;;;;;;27.42;25.58;;;;;;;;;;5093524;28;20254;-89
2022/12/06 03:18:30;;;;;;;27.23;25.33;;;;;;;;;;5093916;28;20227;-89
2022/12/06 03:20:59;;;;;;;27.10;25.13;;;;;;;;;;5095272;28;20235;-89
2022/12/06 03:23:28;;;;;;;27.70;25.50;;;;;;;;;;5093884;28;20546;-89
2022/12/06 03:25:58;;;;;;;27.58;25.65;;;;;;;;;;5093707;28;20224;-89
2022/12/06 03:28:25;;;;;;;26.60;24.88;;;;;;;;;;5094425;28;20193;-89
2022/12/06 03:30:53;;;;;;;27.35;25.33;;;;;;;;;;5093659;28;20691;-90
2022/12/06 03:33:23;;;;;;;26.33;24.52;;;;;;;;;;5095597;28;20214;-89
2022/12/06 03:35:53;;;;;;;28.25;26.25;;;;;;;;;;5097660;28;20232;-89
2022/12/06 03:38:24;;;;;;;27.60;25.70;;;;;;;;;;5097866;28;20212;-89
2022/12/06 03:40:53;;;;;;;29.05;26.95;;;;;;;;;;5097759;28;20215;-89
2022/12/06 03:43:20;;;;;;;27.15;25.35;;;;;;;;;;5097727;28;20208;-89
2022/12/06 03:45:56;;;;;;;27.95;26.05;;;;;;;;;;5097162;28;20224;-90
2022/12/06 03:48:26;;;;;;;27.08;25.25;;;;;;;;;;5097710;28;20197;-89
2022/12/06 03:50:57;;;;;;;27.65;25.85;;;;;;;;;;5098260;28;20206;-89
2022/12/06 03:53:25;;;;;;;27.95;25.85;;;;;;;;;;5097670;28;20196;-89
2022/12/06 03:55:52;;;;;;;26.92;24.92;;;;;;;;;;5097463;28;20242;-89
2022/12/06 03:58:19;;;;;;;26.80;24.88;;;;;;;;;;5097822;28;20210;-89
2022/12/06 04:00:46;;;;;;;27.60;25.60;;;;;;;;;;5097402;28;20206;-89
2022/12/06 04:03:13;;;;;;;26.10;24.40;;;;;;;;;;5097559;28;20215;-90
2022/12/06 04:05:40;;;;;;;26.10;24.27;;;;;;;;;;5097336;28;20231;-89
2022/12/06 04:08:08;;;;;;;26.65;24.77;;;;;;;;;;5100804;28;20207;-89
2022/12/06 04:10:36;;;;;;;26.40;24.60;;;;;;;;;;5097906;28;20207;-90
2022/12/06 04:13:04;;;;;;;26.77;24.95;;;;;;;;;;5097657;28;20203;-89
2022/12/06 04:15:33;;;;;;;27.90;26.00;;;;;;;;;;5097494;28;20222;-90
2022/12/06 04:18:15;;;;;;;27.02;25.17;;;;;;;;;;5096949;28;20210;-90
2022/12/06 04:23:33;;;;;;;25.95;24.33;;;;;;;;;;5097412;28;20236;-90
2022/12/06 04:26:01;;;;;;;26.58;24.73;;;;;;;;;;5097649;28;20691;-90
2022/12/06 04:39:28;;;;;;;27.35;25.40;;;;;;;;;;5097748;28;20545;-91
2022/12/06 04:44:40;;;;;;;26.88;25.08;;;;;;;;;;5096298;28;20260;-91
2022/12/06 04:47:08;;;;;;;25.35;23.63;;;;;;;;;;5097248;28;20754;-91
2022/12/06 04:49:35;;;;;;;25.88;24.02;;;;;;;;;;5097549;28;20207;-91
2022/12/06 04:52:02;;;;;;;25.17;23.58;;;;;;;;;;5097086;28;20203;-91
2022/12/06 04:54:30;;;;;;;27.08;25.27;;;;;;;;;;5096548;28;20214;-91
2022/12/06 04:56:58;;;;;;;27.17;25.38;;;;;;;;;;5097234;28;20715;-90
2022/12/06 04:59:25;;;;;;;26.55;24.95;;;;;;;;;;5097031;28;20210;-91
2022/12/06 05:01:52;;;;;;;26.58;24.70;;;;;;;;;;5096273;28;20219;-91
2022/12/06 05:04:19;;;;;;;26.42;24.63;;;;;;;;;;5096084;28;20206;-91
2022/12/06 05:06:46;;;;;;;26.20;24.35;;;;;;;;;;5096941;28;20241;-91
2022/12/06 05:09:14;;;;;;;26.73;24.63;;;;;;;;;;5097034;28;20206;-90
2022/12/06 05:11:43;;;;;;;26.13;24.27;;;;;;;;;;5095980;28;20203;-89
2022/12/06 05:14:10;;;;;;;25.92;24.02;;;;;;;;;;5094922;28;20249;-90
2022/12/06 05:16:37;;;;;;;25.98;24.05;;;;;;;;;;5096693;28;20219;-90
2022/12/06 05:19:04;;;;;;;25.58;23.67;;;;;;;;;;5096427;28;20204;-89
2022/12/06 05:21:31;;;;;;;27.48;25.38;;;;;;;;;;5095761;28;20247;-90
2022/12/06 05:23:59;;;;;;;26.40;24.70;;;;;;;;;;5096749;28;20261;-90
2022/12/06 05:26:27;;;;;;;28.80;26.00;;;;;;;;;;5095601;28;20745;-90
2022/12/06 05:28:56;;;;;;;29.02;26.67;;;;;;;;;;5096723;28;20215;-90
2022/12/06 05:31:23;;;;;;;30.33;24.83;;;;;;;;;;5096646;28;20209;-90
2022/12/06 05:33:50;;;;;;;27.35;24.90;;;;;;;;;;5096680;28;20214;-90
2022/12/06 05:36:20;;;;;;;28.70;26.35;;;;;;;;;;5099093;28;20226;-90
2022/12/06 05:38:47;;;;;;;29.92;26.73;;;;;;;;;;5096933;28;20209;-90
2022/12/06 05:41:14;;;;;;;28.73;26.20;;;;;;;;;;5099428;28;20207;-90
2022/12/06 05:43:42;;;;;;;36.13;27.65;;;;;;;;;;5095369;28;20555;-89
2022/12/06 05:46:10;;;;;;;29.55;26.80;;;;;;;;;;5095220;28;20556;-90
2022/12/06 05:48:37;;;;;;;29.33;27.05;;;;;;;;;;5094882;28;20210;-90
2022/12/06 05:51:04;;;;;;;29.30;27.13;;;;;;;;;;5095440;28;20207;-90
2022/12/06 05:53:31;;;;;;;29.27;26.48;;;;;;;;;;5095007;28;20210;-90
2022/12/06 05:56:04;;;;;;;36.90;27.55;;;;;;;;;;5094015;28;20228;-90
2022/12/06 05:58:32;;;;;;;29.13;26.63;;;;;;;;;;5095781;28;20215;-89
2022/12/06 06:00:59;;;;;;;28.45;25.80;;;;;;;;;;5095353;28;20208;-90
2022/12/06 06:03:27;;;;;;;30.13;27.20;;;;;;;;;;5094707;28;20233;-90
2022/12/06 06:05:57;;;;;;;30.95;27.73;;;;;;;;;;5095276;28;20222;-90
2022/12/06 06:08:24;;;;;;;29.35;26.45;;;;;;;;;;5095497;28;20212;-89
2022/12/06 06:10:51;;;;;;;28.67;25.95;;;;;;;;;;5095494;28;20211;-90
2022/12/06 06:13:18;;;;;;;28.58;25.92;;;;;;;;;;5094636;28;20229;-90
2022/12/06 06:15:45;;;;;;;29.48;26.77;;;;;;;;;;5094423;28;20238;-89
2022/12/06 06:18:12;;;;;;;37.95;26.55;;;;;;;;;;5095111;28;20547;-90
2022/12/06 06:20:41;;;;;;;30.67;26.15;;;;;;;;;;5094790;28;20203;-89
2022/12/06 06:23:08;;;;;;;29.52;26.42;;;;;;;;;;5094384;28;20221;-90
2022/12/06 06:25:35;;;;;;;27.95;25.65;;;;;;;;;;5094484;28;20226;-90
2022/12/06 06:28:03;;;;;;;26.83;24.27;;;;;;;;;;5096362;28;20217;-89
2022/12/06 06:30:30;;;;;;;28.08;26.00;;;;;;;;;;5096223;28;20207;-89
2022/12/06 06:32:57;;;;;;;29.92;27.23;;;;;;;;;;5096987;28;20199;-90
2022/12/06 06:35:24;;;;;;;28.15;25.67;;;;;;;;;;5095910;28;20227;-89
2022/12/06 06:37:52;;;;;;;28.98;26.58;;;;;;;;;;5094538;28;20584;-89
2022/12/06 06:40:20;;;;;;;28.65;26.00;;;;;;;;;;5096407;28;20214;-89
2022/12/06 06:42:47;;;;;;;29.00;26.50;;;;;;;;;;5097808;28;20223;-89
2022/12/06 06:45:14;;;;;;;30.42;26.27;;;;;;;;;;5095170;28;20223;-90
2022/12/06 06:47:41;;;;;;;27.88;25.63;;;;;;;;;;5096106;28;20205;-89
2022/12/06 06:50:09;;;;;;;29.85;27.02;;;;;;;;;;5095442;28;20210;-89
2022/12/06 06:52:36;;;;;;;29.55;26.75;;;;;;;;;;5094461;28;20208;-90
2022/12/06 06:55:05;;;;;;;28.25;25.73;;;;;;;;;;5094909;28;20203;-89
2022/12/06 06:57:34;;;;;;;29.00;25.85;;;;;;;;;;5096234;28;20569;-89
2022/12/06 07:00:01;;;;;;;29.50;27.10;;;;;;;;;;5095376;28;20336;-89
2022/12/06 07:02:28;;;;;;;29.70;26.85;;;;;;;;;;5095377;28;20223;-89
2022/12/06 07:04:55;;;;;;;28.60;26.20;;;;;;;;;;5093657;28;20210;-90
2022/12/06 07:07:22;;;;;;;30.50;26.33;;;;;;;;;;5096934;28;20195;-89
2022/12/06 07:09:49;;;;;;;28.65;25.85;;;;;;;;;;5099887;28;20206;-89
2022/12/06 07:12:18;;;;;;;31.30;26.88;;;;;;;;;;5100313;28;20212;-89
2022/12/06 07:14:45;;;;;;;30.27;27.55;;;;;;;;;;5100106;28;20227;-89
2022/12/06 07:17:12;;;;;;;31.60;28.65;;;;;;;;;;5098456;28;20220;-89
2022/12/06 07:19:39;;;;;;;28.83;26.15;;;;;;;;;;5099286;28;20203;-89
2022/12/06 07:22:06;;;;;;;35.42;27.52;;;;;;;;;;5099247;28;20581;-89
2022/12/06 07:24:33;;;;;;;37.25;29.05;;;;;;;;;;5099159;28;20210;-89
2022/12/06 07:27:00;;;;;;;32.15;28.20;;;;;;;;;;5097915;28;20587;-89
2022/12/06 07:29:29;;;;;;;30.58;27.25;;;;;;;;;;5098411;28;20211;-89
2022/12/06 07:31:56;;;;;;;31.30;28.20;;;;;;;;;;5098185;28;20558;-89
2022/12/06 07:34:23;;;;;;;59.15;31.23;;;;;;;;;;5098494;28;20242;-89
2022/12/06 07:36:50;;;;;;;31.42;27.90;;;;;;;;;;5099177;28;20715;-89
2022/12/06 07:39:17;;;;;;;32.60;27.42;;;;;;;;;;5100150;28;20202;-89
2022/12/06 07:47:16;;;;;;;30.25;27.27;;;;;;;;;;5098213;28;20214;-89
2022/12/06 07:49:43;;;;;;;34.10;30.10;;;;;;;;;;5097612;28;20200;-89
2022/12/06 07:52:10;;;;;;;34.70;31.20;;;;;;;;;;5097297;28;20250;-89
2022/12/06 07:54:37;;;;;;;36.10;30.10;;;;;;;;;;5097764;28;20203;-78
2022/12/06 07:57:04;;;;;;;42.50;31.77;;;;;;;;;;5096738;28;20230;-78
2022/12/06 07:59:33;;;;;;;44.13;31.83;;;;;;;;;;5096747;28;20203;-79
2022/12/06 08:02:00;;;;;;;36.33;29.80;;;;;;;;;;5096650;28;20579;-79
2022/12/06 08:04:28;;;;;;;43.72;31.17;;;;;;;;;;5096315;28;20560;-78
2022/12/06 08:06:55;;;;;;;44.58;31.40;;;;;;;;;;5099912;28;20223;-79
2022/12/06 08:09:22;;;;;;;37.67;30.27;;;;;;;;;;5096863;28;20237;-78
2022/12/06 08:11:49;;;;;;;35.83;29.85;;;;;;;;;;5096015;28;20215;-78
2022/12/06 08:14:16;;;;;;;33.40;29.80;;;;;;;;;;5095882;28;20210;-77
2022/12/06 08:16:44;;;;;;;39.53;29.40;;;;;;;;;;5096763;28;20234;-78
2022/12/06 08:19:11;;;;;;;33.67;29.52;;;;;;;;;;5096231;28;20669;-79
2022/12/06 08:21:38;;;;;;;47.85;30.48;;;;;;;;;;5095680;28;20666;-78
2022/12/06 08:24:06;;;;;;;32.97;29.67;;;;;;;;;;5095068;28;20234;-78
2022/12/06 08:26:34;;;;;;;33.90;30.25;;;;;;;;;;5095634;28;20894;-77
2022/12/06 08:29:01;;;;;;;32.13;28.98;;;;;;;;;;5095542;28;20196;-78
2022/12/06 08:31:29;;;;;;;32.17;28.83;;;;;;;;;;5095376;28;20212;-78
2022/12/06 08:33:58;;;;;;;32.03;28.67;;;;;;;;;;5095364;28;20607;-78
2022/12/06 08:36:26;;;;;;;32.13;28.52;;;;;;;;;;5095371;28;20231;-78
2022/12/06 08:38:53;;;;;;;32.28;28.77;;;;;;;;;;5096290;28;20189;-78
2022/12/06 08:44:06;;;;;;;30.20;27.60;;;;;;;;;;5094568;28;20288;-78
2022/12/06 08:46:33;;;;;;;33.13;29.63;;;;;;;;;;5095195;28;20240;-79
2022/12/06 08:49:02;;;;;;;34.88;30.67;;;;;;;;;;5095253;28;20208;-79
2022/12/06 08:51:29;;;;;;;44.13;29.52;;;;;;;;;;5095176;28;20202;-79
2022/12/06 08:53:57;;;;;;;37.42;28.95;;;;;;;;;;5104150;28;20251;-78
2022/12/06 08:56:24;;;;;;;33.38;28.50;;;;;;;;;;5100533;28;20254;-78
2022/12/06 08:58:53;;;;;;;34.65;30.70;;;;;;;;;;5100432;28;20207;-79
2022/12/06 09:01:21;;;;;;;38.35;30.63;;;;;;;;;;5100314;28;20207;-78
2022/12/06 09:03:48;;;;;;;36.08;29.63;;;;;;;;;;5100151;28;20321;-78
2022/12/06 09:06:17;;;;;;;44.55;30.55;;;;;;;;;;5100240;28;20233;-79
2022/12/06 09:08:45;;;;;;;31.48;28.27;;;;;;;;;;5098424;28;20203;-78
2022/12/06 09:11:12;;;;;;;35.58;29.58;;;;;;;;;;5096654;28;20214;-78
2022/12/06 09:13:39;;;;;;;32.45;29.30;;;;;;;;;;5095201;28;20208;-79
2022/12/06 09:16:09;;;;;;;43.67;30.30;;;;;;;;;;5096152;28;20281;-85
2022/12/06 09:18:36;;;;;;;34.40;29.95;;;;;;;;;;5095924;28;20204;-81
2022/12/06 09:21:05;;;;;;;36.90;30.02;;;;;;;;;;5096756;28;20668;-80
2022/12/06 09:23:34;;;;;;;33.63;30.00;;;;;;;;;;5096923;28;20219;-80
2022/12/06 09:26:01;;;;;;;44.83;30.98;;;;;;;;;;5097223;28;20698;-82
2022/12/06 09:28:29;;;;;;;35.65;30.48;;;;;;;;;;5099772;28;20573;-80
2022/12/06 09:30:58;;;;;;;32.13;29.08;;;;;;;;;;5103326;28;20199;-80
2022/12/06 09:33:25;;;;;;;36.75;29.75;;;;;;;;;;5098367;28;20226;-88
2022/12/06 09:35:52;;;;;;;36.42;31.73;;;;;;;;;;5096747;28;20235;-82
2022/12/06 09:38:21;;;;;;;35.20;30.67;;;;;;;;;;5096741;28;20216;-79
2022/12/06 09:40:54;;;;;;;32.58;29.45;;;;;;;;;;5100005;28;20577;-81
2022/12/06 09:43:26;;;;;;;35.33;30.08;;;;;;;;;;5100504;28;20238;-81
2022/12/06 09:46:00;;;;;;;30.88;27.75;;;;;;;;;;5101174;28;20231;-78
2022/12/06 09:48:34;;;;;;;32.85;29.67;;;;;;;;;;5100716;28;20580;-79
2022/12/06 09:51:08;;;;;;;35.30;31.50;;;;;;;;;;5101947;28;20198;-79
2022/12/06 09:53:40;;;;;;;33.35;29.52;;;;;;;;;;5094386;28;20211;-81
2022/12/06 09:56:12;;;;;;;33.70;30.25;;;;;;;;;;5090786;28;20238;-86
2022/12/06 09:58:46;;;;;;;34.88;31.52;;;;;;;;;;5101265;28;20203;-88
2022/12/06 10:01:20;;;;;;;38.95;30.27;;;;;;;;;;5100664;28;20186;-88
2022/12/06 10:03:56;;;;;;;35.60;29.80;;;;;;;;;;5110765;28;20220;-79
2022/12/06 10:06:25;;;;;;;34.00;29.60;;;;;;;;;;5099392;28;20227;-79
2022/12/06 10:09:06;;;;;;;33.90;30.23;;;;;;;;;;5100703;28;20214;-90
2022/12/06 10:11:42;;;;;;;33.28;29.77;;;;;;;;;;5099588;28;20213;-89
2022/12/06 10:14:13;;;;;;;34.15;30.58;;;;;;;;;;5099884;28;20582;-86
2022/12/06 10:16:46;;;;;;;34.15;30.70;;;;;;;;;;5100968;28;20235;-88
2022/12/06 10:19:19;;;;;;;32.03;28.83;;;;;;;;;;5102503;28;20208;-79
2022/12/06 10:21:53;;;;;;;34.53;31.35;;;;;;;;;;5103319;28;20208;-80
2022/12/06 10:24:27;;;;;;;32.92;29.83;;;;;;;;;;5102360;28;20223;-79
2022/12/06 10:27:02;;;;;;;32.63;29.30;;;;;;;;;;5101716;28;20233;-79
2022/12/06 10:29:33;;;;;;;62.55;35.60;;;;;;;;;;5101484;28;20214;-79
2022/12/06 10:32:01;;;;;;;34.53;31.13;;;;;;;;;;5101320;28;20184;-79
2022/12/06 10:34:36;;;;;;;35.58;32.42;;;;;;;;;;5102501;28;20196;-79
2022/12/06 10:37:08;;;;;;;33.90;30.30;;;;;;;;;;5100524;28;20239;-80
2022/12/06 10:39:40;;;;;;;33.40;30.30;;;;;;;;;;5101605;28;20194;-85
2022/12/06 10:42:12;;;;;;;35.63;31.00;;;;;;;;;;5099464;28;20192;-78
2022/12/06 10:44:42;;;;;;;34.25;30.65;;;;;;;;;;5099747;28;20208;-78
2022/12/06 10:47:17;;;;;;;33.90;30.40;;;;;;;;;;5099165;28;20323;-82
2022/12/06 10:49:49;;;;;;;36.55;32.75;;;;;;;;;;5100408;28;20184;-78
2022/12/06 10:52:30;;;;;;;34.45;31.00;;;;;;;;;;5097783;28;20214;-78
2022/12/06 10:55:01;;;;;;;34.75;31.17;;;;;;;;;;5098406;28;20192;-78
2022/12/06 10:57:32;;;;;;;36.78;32.95;;;;;;;;;;5098679;28;20681;-78
2022/12/06 11:00:02;;;;;;;36.53;33.08;;;;;;;;;;5097905;28;20188;-79
2022/12/06 11:02:33;;;;;;;33.83;30.25;;;;;;;;;;5100382;28;20238;-79
2022/12/06 11:05:03;;;;;;;35.78;31.05;;;;;;;;;;5094380;28;20869;-78
2022/12/06 11:07:34;;;;;;;36.40;32.70;;;;;;;;;;5094418;28;20615;-83
2022/12/06 11:10:02;;;;;;;33.88;30.15;;;;;;;;;;5095470;28;20197;-77
2022/12/06 11:12:33;;;;;;;35.17;31.48;;;;;;;;;;5094973;28;20212;-79
2022/12/06 11:15:03;;;;;;;32.70;29.70;;;;;;;;;;5093839;28;20785;-76
2022/12/06 11:17:33;;;;;;;36.58;31.55;;;;;;;;;;5093816;28;20211;-78
2022/12/06 11:20:02;;;;;;;42.25;29.73;;;;;;;;;;5093701;28;20289;-79
2022/12/06 11:22:34;;;;;;;33.40;30.15;;;;;;;;;;5094512;28;20219;-79
2022/12/06 11:25:04;;;;;;;33.15;29.85;;;;;;;;;;5098193;28;20199;-78
2022/12/06 11:27:34;;;;;;;32.97;29.85;;;;;;;;;;5097187;28;20212;-88
2022/12/06 11:30:02;;;;;;;34.25;30.83;;;;;;;;;;5097398;28;20637;-86
2022/12/06 11:32:29;;;;;;;36.42;29.70;;;;;;;;;;5099628;28;20544;-86
2022/12/06 11:34:57;;;;;;;41.42;29.95;;;;;;;;;;5099784;28;20557;-87
2022/12/06 11:37:26;;;;;;;34.88;31.30;;;;;;;;;;5100627;28;20207;-86
2022/12/06 11:39:55;;;;;;;34.17;30.08;;;;;;;;;;5101662;28;20216;-86
2022/12/06 11:42:24;;;;;;;36.03;32.28;;;;;;;;;;5100618;28;20227;-88
2022/12/06 11:44:54;;;;;;;34.58;30.88;;;;;;;;;;5100810;28;20708;-86
2022/12/06 11:47:22;;;;;;;36.10;31.67;;;;;;;;;;5102400;28;20239;-86
2022/12/06 11:49:52;;;;;;;43.47;30.98;;;;;;;;;;5099714;28;20220;-87
2022/12/06 11:52:22;;;;;;;35.88;32.35;;;;;;;;;;5096727;28;20253;-84
2022/12/06 11:54:52;;;;;;;36.03;32.78;;;;;;;;;;5098714;28;20203;-78
2022/12/06 11:57:21;;;;;;;35.80;32.20;;;;;;;;;;5099770;28;20702;-79
2022/12/06 12:00:10;;;;;;;38.72;32.78;;;;;;;;;;5099718;28;20195;-80
2022/12/06 12:02:37;;;;;;;39.92;33.97;;;;;;;;;;5101854;28;20209;-85
2022/12/06 12:05:09;;;;;;;34.72;31.23;;;;;;;;;;5100491;28;20702;-78
2022/12/06 12:07:36;;;;;;;37.72;33.22;;;;;;;;;;5101151;28;20208;-82
2022/12/06 12:10:04;;;;;;;44.60;33.00;;;;;;;;;;5100411;28;20204;-87
2022/12/06 12:15:21;;;;;;;49.25;33.20;;;;;;;;;;5096441;28;20304;-80
2022/12/06 12:17:50;;;;;;;39.22;34.33;;;;;;;;;;5098026;28;20185;-80
2022/12/06 12:20:20;;;;;;;50.90;36.30;;;;;;;;;;5099287;28;20207;-90
2022/12/06 12:22:53;;;;;;;45.03;35.75;;;;;;;;;;5098095;28;20216;-81
2022/12/06 12:25:23;;;;;;;52.65;33.78;;;;;;;;;;5097226;28;20398;-82
2022/12/06 12:27:52;;;;;;;36.47;32.38;;;;;;;;;;5096930;28;20657;-83
2022/12/06 12:30:23;;;;;;;37.95;34.00;;;;;;;;;;5097661;28;20298;-81
2022/12/06 12:32:55;;;;;;;89.05;37.30;;;;;;;;;;5097407;28;20207;-80
2022/12/06 12:35:27;;;;;;;57.65;45.13;;;;;;;;;;5096513;28;20226;-79
2022/12/06 12:37:58;;;;;;;128.60;63.95;;;;;;;;;;5095889;28;20223;-80
2022/12/06 12:40:27;;;;;;;57.30;36.70;;;;;;;;;;5097241;28;20703;-82
2022/12/06 12:42:58;;;;;;;56.42;35.95;;;;;;;;;;5096421;28;20205;-74
2022/12/06 12:45:28;;;;;;;56.45;35.83;;;;;;;;;;5099163;28;20258;-81
2022/12/06 12:47:56;;;;;;;52.72;35.95;;;;;;;;;;5101014;28;20225;-80
2022/12/06 12:50:23;;;;;;;59.30;36.50;;;;;;;;;;5096329;28;20235;-74
2022/12/06 12:52:51;;;;;;;57.85;36.92;;;;;;;;;;5095523;28;20212;-74
2022/12/06 12:55:20;;;;;;;65.43;39.92;;;;;;;;;;5097460;28;20231;-75
2022/12/06 12:57:49;;;;;;;48.92;37.00;;;;;;;;;;5099509;28;20201;-80
2022/12/06 13:00:17;;;;;;;54.10;35.45;;;;;;;;;;5097509;28;20204;-83
2022/12/06 13:02:48;;;;;;;59.33;33.95;;;;;;;;;;5099858;28;20225;-76
2022/12/06 13:05:17;;;;;;;60.72;36.78;;;;;;;;;;5096863;28;20389;-82
2022/12/06 13:07:47;;;;;;;46.78;38.75;;;;;;;;;;5099127;28;20290;-81
2022/12/06 13:10:18;;;;;;;50.65;36.65;;;;;;;;;;5098099;28;20192;-77
2022/12/06 13:12:48;;;;;;;40.42;35.60;;;;;;;;;;5094947;28;20203;-77
2022/12/06 13:15:16;;;;;;;54.67;35.15;;;;;;;;;;5093959;28;20710;-78
2022/12/06 13:17:46;;;;;;;64.05;36.47;;;;;;;;;;5095728;28;20209;-76
2022/12/06 13:20:21;;;;;;;47.53;35.33;;;;;;;;;;5096672;28;20211;-81
2022/12/06 13:22:50;;;;;;;44.35;33.70;;;;;;;;;;5097114;28;20185;-80
2022/12/06 13:25:17;;;;;;;42.08;32.42;;;;;;;;;;5094944;28;20232;-78
2022/12/06 13:27:47;;;;;;;47.45;34.30;;;;;;;;;;5095184;28;20204;-79
2022/12/06 13:30:17;;;;;;;45.10;35.72;;;;;;;;;;5095517;28;20216;-78
2022/12/06 13:32:48;;;;;;;44.95;32.97;;;;;;;;;;5094948;28;20215;-79
2022/12/06 13:35:21;;;;;;;54.35;35.35;;;;;;;;;;5094372;28;20243;-79
2022/12/06 13:37:52;;;;;;;69.18;35.47;;;;;;;;;;5094795;28;20222;-78
2022/12/06 13:40:37;;;;;;;58.70;34.95;;;;;;;;;;5094966;28;20192;-78
2022/12/06 13:43:05;;;;;;;58.03;36.72;;;;;;;;;;5094306;28;20576;-79
2022/12/06 13:45:40;;;;;;;78.55;35.42;;;;;;;;;;5094242;28;20255;-78
2022/12/06 13:48:22;;;;;;;64.47;37.30;;;;;;;;;;5094572;28;20207;-78
2022/12/06 13:50:53;;;;;;;51.67;35.88;;;;;;;;;;5064804;28;20209;-78
2022/12/06 13:53:20;;;;;;;74.90;33.22;;;;;;;;;;5073631;28;20649;-79
2022/12/06 13:55:56;;;;;;;37.17;32.38;;;;;;;;;;5074043;28;20319;-79
2022/12/06 13:58:43;;;;;;;50.78;34.22;;;;;;;;;;5077526;28;20201;-82
2022/12/06 14:01:29;;;;;;;38.58;34.35;;;;;;;;;;5077569;28;20214;-78
2022/12/06 14:03:57;;;;;;;61.55;36.67;;;;;;;;;;5074004;28;20556;-76
2022/12/06 14:06:41;;;;;;;64.30;34.33;;;;;;;;;;5074190;28;20234;-77
2022/12/06 14:09:09;;;;;;;42.60;34.97;;;;;;;;;;5077906;28;20228;-83
2022/12/06 14:11:36;;;;;;;52.20;36.83;;;;;;;;;;5080488;28;20215;-83
2022/12/06 14:14:07;;;;;;;49.00;36.78;;;;;;;;;;5077812;28;20215;-83
2022/12/06 14:16:36;;;;;;;66.38;45.08;;;;;;;;;;5077565;28;20563;-83
2022/12/06 14:19:04;;;;;;;45.90;35.17;;;;;;;;;;5079338;28;20201;-83
2022/12/06 14:21:35;;;;;;;53.05;36.47;;;;;;;;;;5079599;28;20842;-83
2022/12/06 14:24:04;;;;;;;48.20;37.80;;;;;;;;;;5089007;28;20207;-83
2022/12/06 14:26:32;;;;;;;46.42;36.22;;;;;;;;;;5101958;28;20232;-83
2022/12/06 14:29:00;;;;;;;48.15;37.72;;;;;;;;;;5100511;28;20224;-78
2022/12/06 14:31:29;;;;;;;63.13;41.13;;;;;;;;;;5092690;28;20201;-77
2022/12/06 14:33:56;;;;;;;44.25;37.33;;;;;;;;;;5092893;28;20200;-77
2022/12/06 14:36:25;;;;;;;48.75;34.78;;;;;;;;;;5080902;28;20250;-77
2022/12/06 14:38:54;;;;;;;42.88;36.55;;;;;;;;;;5092832;28;20210;-77
2022/12/06 14:44:13;;;;;;;57.67;39.17;;;;;;;;;;5092632;28;20667;-77
2022/12/06 14:46:40;;;;;;;47.80;38.70;;;;;;;;;;5092595;28;20260;-77
2022/12/06 14:51:54;;;;;;;55.85;42.00;;;;;;;;;;5092950;28;20182;-77
2022/12/06 14:54:32;;;;;;;59.88;37.58;;;;;;;;;;5092140;28;20573;-78
2022/12/06 14:57:00;;;;;;;53.08;38.13;;;;;;;;;;5092929;28;20227;-77
2022/12/06 14:59:28;;;;;;;42.15;37.05;;;;;;;;;;5095078;28;20204;-82
2022/12/06 15:01:55;;;;;;;52.58;39.00;;;;;;;;;;5096303;28;20212;-82